KSYM

Morehead-Rowan County Clyde A Thomas Regional Airport

Morehead, Kentucky, USA
METAR KSYM 212335Z AUTO 00000KT 6SM HZ SCT024 BKN055 24/22 A2977 RMK AO2
Observed Flight Rules
Jun-21 @ 23:35 UTC (18 minutes ago) Visual Flight Rules
Visibility Clouds Conditions
6 miles
  • Scattered at 2,400' AGL
  • Broken at 5,500' AGL
  • Haze
Temperatures Readings
Current 24°C / 75°F
Dewpoint 22°C / 72°F
Humidity 89%
Altimeter 29.77" Hg
Pressure 1008 hPa
Elevation 313
METAR KSYM 212335Z AUTO 00000KT 6SM HZ SCT024 BKN055 24/22 A2977 RMK AO2
Observed Flight Rules
Jun-21 @ 23:35 UTC
(18 minutes ago)
VFR
Clouds
  • Scattered at 2,400' AGL
  • Broken at 5,500' AGL
Conditions
  • Haze
Temperature Dewpoint
24°C / 75°F 22°C / 72°F
Humidity Altimeter Pressure
89% 29.77" Hg 1008 hPa